LIPQ/TRS METAR and TAF weather

Enter ICAO airport designator
Station Type Date Time Source
LIPQ METAR 2021/09/28 16:20 UTC NOAA

LIPQ 281620Z AUTO 28005KT 9999 NCD 25/18 Q1018


Station Type Date Time Source
LIPQ Decoded METAR 2021/09/28 16:20 UTC NOAA

Ronchi Dei Legionari, Italy (LIPQ) 45-49N 013-29E 12M
Sep 28, 2021 - 12:20 PM EDT / 2021.09.28 1620 UTC
Wind: from the W (280 degrees) at 6 MPH (5 KT):0
Visibility: greater than 7 mile(s):0
Temperature: 77 F (25 C)
Dew Point: 64 F (18 C)
Relative Humidity: 65%
Pressure (altimeter): 30.06 in. Hg (1018 hPa)
ob: LIPQ 281620Z AUTO 28005KT 9999 NCD 25/18 Q1018
cycle: 16

Station Type Date Time Source
LIPQ TAF 2021/09/28 12:21 UTC NOAA

TAF LIPQ 281100Z 2812/2912 VRB05KT 9999 FEW040
TEMPO 2900/2906 3000 BR

Example: see airport list